Time;durP1;ratioP1;P1;durP2;ratioP2;P2;SDS_P1;SDS_P2;PMS_P1;PMS_P2;Temp;Humidity;BMP_temperature;BMP_pressure;BME280_temperature;BME280_humidity;BME280_pressure;Samples;Min_cycle;Max_cycle;Signal;HPM_P1;HPM_P2
2023/12/06 00:01:23;;;;;;;5.28;0.70;;;5.00;99.90;;;;;;4970497;28;20030;-76
2023/12/06 00:03:52;;;;;;;0.55;0.55;;;5.00;99.90;;;;;;4953827;28;20028;-76
2023/12/06 00:06:17;;;;;;;0.93;0.60;;;5.00;99.90;;;;;;4972664;28;20097;-76
2023/12/06 00:08:43;;;;;;;2.33;0.57;;;5.00;99.90;;;;;;4956045;29;20027;-76
2023/12/06 00:11:08;;;;;;;0.30;0.30;;;5.00;99.90;;;;;;4971763;28;20046;-75
2023/12/06 00:13:35;;;;;;;0.40;0.30;;;5.00;99.90;;;;;;4956018;29;20070;-75
2023/12/06 00:16:00;;;;;;;0.50;0.50;;;5.00;99.90;;;;;;4969944;28;20015;-75
2023/12/06 00:18:27;;;;;;;1.15;0.50;;;5.20;99.90;;;;;;4954517;29;20030;-75
2023/12/06 00:20:53;;;;;;;1.48;0.57;;;5.00;99.90;;;;;;4973723;28;20343;-75
2023/12/06 00:23:18;;;;;;;1.25;0.60;;;4.90;99.90;;;;;;4955728;28;20016;-76
2023/12/06 00:25:44;;;;;;;1.52;0.40;;;5.00;99.90;;;;;;4972620;28;20019;-76
2023/12/06 00:28:10;;;;;;;0.50;0.40;;;4.90;99.90;;;;;;4970677;28;20027;-75
2023/12/06 00:30:36;;;;;;;0.30;0.30;;;4.90;99.90;;;;;;4955766;28;20035;-76
2023/12/06 00:33:03;;;;;;;2.13;0.50;;;4.90;99.90;;;;;;4954051;28;20050;-76
2023/12/06 00:35:28;;;;;;;0.68;0.68;;;4.90;99.90;;;;;;4954648;29;20375;-76
2023/12/06 00:37:54;;;;;;;0.70;0.50;;;4.90;99.90;;;;;;4972621;28;20046;-75
2023/12/06 00:40:20;;;;;;;0.32;0.32;;;5.00;99.90;;;;;;4954827;28;20039;-75
2023/12/06 00:42:46;;;;;;;1.52;0.45;;;4.90;99.90;;;;;;4971764;28;20034;-75
2023/12/06 00:45:11;;;;;;;0.65;0.32;;;4.90;99.90;;;;;;4955000;28;20039;-75
2023/12/06 00:47:37;;;;;;;0.63;0.52;;;4.90;99.90;;;;;;4955848;29;20068;-75
2023/12/06 00:50:04;;;;;;;0.50;0.50;;;5.30;99.90;;;;;;4971649;28;20062;-75
2023/12/06 00:52:30;;;;;;;0.40;0.30;;;4.80;99.90;;;;;;4972787;28;20043;-75
2023/12/06 00:54:56;;;;;;;1.48;1.15;;;4.80;99.90;;;;;;4971227;28;20082;-75
2023/12/06 00:57:22;;;;;;;1.50;0.60;;;4.80;99.90;;;;;;4968478;28;20027;-75
2023/12/06 00:59:48;;;;;;;0.65;0.45;;;4.80;99.90;;;;;;4966291;28;20082;-75
2023/12/06 01:02:13;;;;;;;0.45;0.43;;;5.00;99.90;;;;;;4968344;28;20022;-75
2023/12/06 01:04:39;;;;;;;0.65;0.40;;;4.70;99.90;;;;;;4970731;28;20062;-75
2023/12/06 01:07:06;;;;;;;1.83;0.30;;;4.70;99.90;;;;;;4952114;28;20392;-75
2023/12/06 01:09:32;;;;;;;1.98;0.90;;;4.70;99.90;;;;;;4970375;28;20067;-75
2023/12/06 01:11:58;;;;;;;0.35;0.35;;;4.70;99.90;;;;;;4970666;28;20031;-75
2023/12/06 01:14:25;;;;;;;0.63;0.60;;;4.70;99.90;;;;;;4971149;28;20041;-75
2023/12/06 01:16:51;;;;;;;3.95;0.50;;;4.80;99.90;;;;;;4953072;29;20030;-76
2023/12/06 01:19:16;;;;;;;0.30;0.30;;;4.80;99.90;;;;;;4971087;28;20307;-75
2023/12/06 01:21:46;;;;;;;0.50;0.50;;;4.80;99.90;;;;;;4969223;28;20027;-75
2023/12/06 01:24:12;;;;;;;0.98;0.35;;;4.80;99.90;;;;;;4954207;29;20028;-75
2023/12/06 01:26:40;;;;;;;0.93;0.70;;;4.90;99.90;;;;;;4971448;28;20022;-75
2023/12/06 01:29:08;;;;;;;3.83;0.60;;;4.90;99.90;;;;;;4970907;28;20239;-75
2023/12/06 01:31:33;;;;;;;3.40;0.85;;;4.90;99.90;;;;;;4955109;29;20038;-76
2023/12/06 01:34:00;;;;;;;0.90;0.50;;;4.90;99.90;;;;;;4971362;28;20047;-75
2023/12/06 01:36:28;;;;;;;0.57;0.57;;;5.10;99.90;;;;;;4971846;28;20078;-76
2023/12/06 01:38:53;;;;;;;0.75;0.75;;;5.00;99.90;;;;;;4950031;29;20027;-75
2023/12/06 01:41:22;;;;;;;0.52;0.52;;;5.00;99.90;;;;;;4969432;28;20380;-75
2023/12/06 01:43:47;;;;;;;1.93;0.70;;;5.10;99.90;;;;;;4969858;28;20030;-75
2023/12/06 01:46:13;;;;;;;2.45;1.50;;;5.10;99.90;;;;;;4969640;28;20784;-75
2023/12/06 01:48:39;;;;;;;0.82;0.47;;;5.00;99.90;;;;;;4969546;28;20050;-75
2023/12/06 01:51:06;;;;;;;0.90;0.70;;;5.00;99.90;;;;;;4966465;28;20020;-75
2023/12/06 01:53:32;;;;;;;2.70;1.25;;;4.90;99.90;;;;;;4968853;28;20107;-75
2023/12/06 01:55:59;;;;;;;0.73;0.60;;;4.90;99.90;;;;;;4968856;28;20042;-75
2023/12/06 01:58:26;;;;;;;0.90;0.30;;;4.90;99.90;;;;;;4969228;28;20440;-75
2023/12/06 02:00:52;;;;;;;0.50;0.50;;;4.90;99.90;;;;;;4952365;29;20320;-75
2023/12/06 02:03:20;;;;;;;1.85;0.55;;;5.30;99.90;;;;;;4971391;28;20059;-75
2023/12/06 02:05:48;;;;;;;0.98;0.40;;;4.80;99.90;;;;;;4969465;28;20019;-74
2023/12/06 02:08:15;;;;;;;0.63;0.40;;;4.80;99.90;;;;;;4968843;28;20039;-75
2023/12/06 02:10:40;;;;;;;1.58;0.77;;;4.70;99.90;;;;;;4969071;28;20031;-75
2023/12/06 02:13:06;;;;;;;2.13;0.30;;;4.60;99.90;;;;;;4973496;28;20422;-75
2023/12/06 02:15:33;;;;;;;0.50;0.50;;;4.50;99.90;;;;;;4954205;28;20050;-75
2023/12/06 02:18:00;;;;;;;1.95;0.50;;;4.50;99.90;;;;;;4956444;28;20023;-75
2023/12/06 02:20:25;;;;;;;0.50;0.50;;;4.50;99.90;;;;;;4971727;28;20083;-75
2023/12/06 02:22:53;;;;;;;0.50;0.40;;;4.40;99.90;;;;;;4972336;28;20023;-75
2023/12/06 02:25:19;;;;;;;0.30;0.30;;;4.50;99.90;;;;;;4971404;28;20051;-76
2023/12/06 02:27:46;;;;;;;2.42;0.52;;;4.50;99.90;;;;;;4973120;28;20247;-75
2023/12/06 02:30:12;;;;;;;1.60;0.50;;;4.60;99.90;;;;;;4954359;28;20015;-75
2023/12/06 02:32:38;;;;;;;2.75;0.50;;;4.50;99.90;;;;;;4954889;28;20404;-75
2023/12/06 02:35:30;;;;;;;1.02;0.30;;;4.60;99.90;;;;;;4970049;28;20351;-75
2023/12/06 02:37:58;;;;;;;1.20;0.40;;;4.60;99.90;;;;;;4971418;28;20039;-75
2023/12/06 02:40:27;;;;;;;0.70;0.70;;;4.60;99.90;;;;;;4954226;29;20027;-75
2023/12/06 02:42:53;;;;;;;0.40;0.25;;;4.60;99.90;;;;;;4955842;29;20299;-75
2023/12/06 02:45:18;;;;;;;0.40;0.40;;;4.70;99.90;;;;;;4954392;28;20027;-75
2023/12/06 02:47:45;;;;;;;0.32;0.32;;;4.70;99.90;;;;;;4972207;28;20288;-75
2023/12/06 02:50:11;;;;;;;0.85;0.43;;;4.70;99.90;;;;;;4973529;28;20027;-75
2023/12/06 02:52:37;;;;;;;1.35;0.60;;;4.70;99.90;;;;;;4972829;28;20110;-75
2023/12/06 02:55:03;;;;;;;3.88;0.70;;;4.70;99.90;;;;;;4973885;28;20079;-75
2023/12/06 02:57:28;;;;;;;2.35;0.60;;;4.70;99.90;;;;;;4972536;28;20035;-75
2023/12/06 02:59:54;;;;;;;0.55;0.55;;;4.60;99.90;;;;;;4973817;28;20038;-75
2023/12/06 03:02:20;;;;;;;1.65;0.70;;;4.60;99.90;;;;;;4956931;29;20039;-75
2023/12/06 03:04:45;;;;;;;0.70;0.70;;;4.50;99.90;;;;;;4970284;28;20023;-75
2023/12/06 03:07:11;;;;;;;0.50;0.50;;;4.50;99.90;;;;;;4968158;28;20027;-75
2023/12/06 03:09:37;;;;;;;0.60;0.60;;;4.40;99.90;;;;;;4951336;28;20223;-75
2023/12/06 03:12:06;;;;;;;0.10;0.10;;;4.30;99.90;;;;;;4970327;28;20035;-75
2023/12/06 03:14:32;;;;;;;;;;;4.20;99.90;;;;;;4954384;29;20274;-75
2023/12/06 03:16:57;;;;;;;0.50;0.40;;;4.20;99.90;;;;;;4970461;28;19903;-75
2023/12/06 03:19:23;;;;;;;0.30;0.30;;;4.10;99.90;;;;;;4967078;28;20038;-74
2023/12/06 03:21:49;;;;;;;0.30;0.30;;;4.20;99.90;;;;;;4967403;28;20063;-75
2023/12/06 03:24:14;;;;;;;1.85;0.70;;;4.20;99.90;;;;;;4968755;28;20051;-75
2023/12/06 03:26:40;;;;;;;0.40;0.17;;;4.20;99.90;;;;;;4952442;29;20039;-75
2023/12/06 03:29:09;;;;;;;2.00;0.20;;;4.20;99.90;;;;;;4968641;28;20019;-75
2023/12/06 03:31:35;;;;;;;0.20;0.20;;;4.40;99.90;;;;;;4969913;29;20038;-75
2023/12/06 03:34:00;;;;;;;0.20;0.20;;;4.30;99.90;;;;;;4969346;28;20031;-75
2023/12/06 03:36:26;;;;;;;0.20;0.20;;;4.40;99.90;;;;;;4969664;28;20038;-75
2023/12/06 03:38:52;;;;;;;0.30;0.30;;;4.40;99.90;;;;;;4969727;28;20030;-75
2023/12/06 03:41:19;;;;;;;0.52;0.20;;;4.40;99.90;;;;;;4965479;28;20015;-75
2023/12/06 03:43:45;;;;;;;0.20;0.20;;;4.30;99.90;;;;;;4965600;28;20114;-74
2023/12/06 03:46:11;;;;;;;0.40;0.30;;;4.20;99.90;;;;;;4965508;28;20058;-75
2023/12/06 03:48:37;;;;;;;0.30;0.30;;;4.20;99.90;;;;;;4964965;28;20023;-75
2023/12/06 03:51:03;;;;;;;0.17;0.17;;;4.10;99.90;;;;;;4948102;28;20034;-75
2023/12/06 03:53:29;;;;;;;0.20;0.20;;;4.20;99.90;;;;;;4963400;28;20062;-75
2023/12/06 03:55:55;;;;;;;0.17;0.17;;;4.20;99.90;;;;;;4964626;28;20050;-75
2023/12/06 03:58:22;;;;;;;0.55;0.17;;;4.30;99.90;;;;;;4964692;28;20027;-75
2023/12/06 04:00:47;;;;;;;0.55;0.20;;;4.30;99.90;;;;;;4964557;28;20420;-75
2023/12/06 04:03:13;;;;;;;0.30;0.30;;;4.20;99.90;;;;;;4964961;28;20085;-76
2023/12/06 04:05:42;;;;;;;1.90;0.35;;;4.30;99.90;;;;;;4946182;29;20496;-75
2023/12/06 04:08:08;;;;;;;0.20;0.20;;;4.30;99.90;;;;;;4946397;29;20038;-75
2023/12/06 04:10:34;;;;;;;0.57;0.40;;;4.30;99.90;;;;;;4961894;28;20099;-75
2023/12/06 04:12:59;;;;;;;2.30;0.45;;;4.30;99.90;;;;;;4963996;28;20059;-75
2023/12/06 04:15:25;;;;;;;0.43;0.43;;;4.40;99.90;;;;;;4946597;29;20082;-75
2023/12/06 04:17:50;;;;;;;2.47;0.43;;;4.30;99.90;;;;;;4965137;28;20070;-75
2023/12/06 04:20:17;;;;;;;0.65;0.30;;;4.30;99.90;;;;;;4947380;29;20066;-75
2023/12/06 04:22:43;;;;;;;0.40;0.40;;;4.30;99.90;;;;;;4947308;28;20523;-75
2023/12/06 04:25:09;;;;;;;1.02;0.60;;;4.40;99.90;;;;;;4963909;28;20109;-75
2023/12/06 04:27:35;;;;;;;0.35;0.35;;;4.40;99.90;;;;;;4964748;28;20106;-75
2023/12/06 04:30:01;;;;;;;0.40;0.40;;;4.30;99.90;;;;;;4963684;28;20485;-75
2023/12/06 04:32:26;;;;;;;0.30;0.30;;;4.40;99.90;;;;;;4968744;28;20119;-75
2023/12/06 04:34:57;;;;;;;0.40;0.30;;;4.40;99.90;;;;;;4952709;28;20031;-75
2023/12/06 04:37:46;;;;;;;0.65;0.30;;;4.40;99.90;;;;;;4970881;28;20023;-75
2023/12/06 04:40:13;;;;;;;1.35;0.30;;;4.50;99.90;;;;;;4946077;28;20156;-75
2023/12/06 04:42:38;;;;;;;1.85;0.70;;;4.40;99.90;;;;;;4962200;28;20043;-75
2023/12/06 04:45:05;;;;;;;0.38;0.38;;;4.40;99.90;;;;;;4967431;28;20027;-75
2023/12/06 04:47:50;;;;;;;1.40;0.60;;;4.40;99.90;;;;;;4976684;28;20038;-75
2023/12/06 04:50:17;;;;;;;0.47;0.32;;;4.30;99.90;;;;;;4975887;28;20023;-75
2023/12/06 04:52:45;;;;;;;0.60;0.55;;;4.20;99.90;;;;;;4975537;28;20047;-75
2023/12/06 04:55:30;;;;;;;0.40;0.40;;;4.20;99.90;;;;;;4960978;28;20027;-75
2023/12/06 04:57:59;;;;;;;0.40;0.40;;;4.20;99.90;;;;;;4976551;28;20043;-75
2023/12/06 05:00:26;;;;;;;2.17;0.70;;;4.10;99.90;;;;;;4959493;28;20023;-75
2023/12/06 05:02:52;;;;;;;2.25;0.50;;;4.00;99.90;;;;;;4975959;28;20027;-75
2023/12/06 05:05:41;;;;;;;2.28;0.40;;;4.00;99.90;;;;;;4976005;28;20047;-75
2023/12/06 05:08:07;;;;;;;2.72;1.88;;;3.90;99.90;;;;;;4975583;28;20036;-75
2023/12/06 05:10:38;;;;;;;0.68;0.68;;;3.80;99.90;;;;;;4976204;28;20019;-76
2023/12/06 05:13:24;;;;;;;2.03;0.80;;;3.70;99.90;;;;;;4964055;28;20027;-75
2023/12/06 05:15:50;;;;;;;1.02;0.60;;;3.70;99.90;;;;;;4962730;28;20038;-75
2023/12/06 05:18:15;;;;;;;1.77;1.42;;;3.70;99.90;;;;;;4943594;29;20010;-75
2023/12/06 05:20:41;;;;;;;1.95;0.73;;;3.70;99.90;;;;;;4961015;28;20540;-75
2023/12/06 05:23:07;;;;;;;0.50;0.50;;;3.60;99.90;;;;;;4944979;28;20031;-75
2023/12/06 05:25:35;;;;;;;3.15;0.80;;;3.60;99.90;;;;;;4945083;29;20463;-75
2023/12/06 05:28:01;;;;;;;0.98;0.98;;;3.60;99.90;;;;;;4964039;28;20039;-75
2023/12/06 05:30:27;;;;;;;0.85;0.70;;;3.50;99.90;;;;;;4962938;28;20027;-75
2023/12/06 05:32:54;;;;;;;0.85;0.70;;;3.60;99.90;;;;;;4962219;28;20122;-75
2023/12/06 05:35:20;;;;;;;1.55;0.50;;;3.50;99.90;;;;;;4962777;28;20011;-75
2023/12/06 05:37:46;;;;;;;2.10;0.65;;;3.40;99.90;;;;;;4962425;28;20027;-75
2023/12/06 05:40:12;;;;;;;0.73;0.60;;;3.40;99.90;;;;;;4963129;28;20027;-75
2023/12/06 05:42:38;;;;;;;1.23;0.43;;;3.40;99.90;;;;;;4962204;28;20388;-76
2023/12/06 05:45:06;;;;;;;1.05;0.60;;;3.30;99.90;;;;;;4962555;28;20023;-75
2023/12/06 05:47:33;;;;;;;0.70;0.52;;;3.40;99.90;;;;;;4961585;28;20039;-75
2023/12/06 05:49:58;;;;;;;0.40;0.40;;;3.50;99.90;;;;;;4965914;28;20094;-76
2023/12/06 05:52:25;;;;;;;2.33;0.50;;;3.40;99.90;;;;;;4948661;29;20571;-75
2023/12/06 05:54:51;;;;;;;0.50;0.50;;;3.50;99.90;;;;;;4966299;28;20027;-75
2023/12/06 05:57:17;;;;;;;0.65;0.65;;;3.40;99.90;;;;;;4967666;28;20016;-76
2023/12/06 05:59:42;;;;;;;3.50;2.35;;;3.30;99.90;;;;;;4967438;28;20070;-75
2023/12/06 06:02:08;;;;;;;0.77;0.30;;;3.30;99.90;;;;;;4967382;28;20106;-75
2023/12/06 06:04:34;;;;;;;4.63;1.52;;;3.30;99.90;;;;;;4966930;28;20101;-75
2023/12/06 06:07:00;;;;;;;1.65;0.60;;;3.40;99.90;;;;;;4966237;28;20027;-75
2023/12/06 06:09:26;;;;;;;12.95;3.78;;;3.40;99.90;;;;;;4949042;28;20110;-75
2023/12/06 06:11:52;;;;;;;2.22;1.75;;;3.40;99.90;;;;;;4968028;28;20027;-76
2023/12/06 06:14:18;;;;;;;3.22;2.47;;;3.40;99.90;;;;;;4952251;29;20381;-75
2023/12/06 06:16:43;;;;;;;9.50;3.72;;;3.40;99.90;;;;;;4953508;29;20030;-75
2023/12/06 06:19:09;;;;;;;10.18;4.32;;;3.40;99.90;;;;;;4966488;28;20059;-75
2023/12/06 06:21:34;;;;;;;3.90;1.30;;;3.40;99.90;;;;;;4970002;28;20038;-75
2023/12/06 06:24:00;;;;;;;1.58;1.45;;;3.50;99.90;;;;;;4949922;29;20055;-76
2023/12/06 06:26:26;;;;;;;3.13;2.28;;;3.40;99.90;;;;;;4965525;28;20114;-75
2023/12/06 06:28:51;;;;;;;1.70;0.93;;;3.60;99.90;;;;;;4968981;28;20023;-76
2023/12/06 06:31:17;;;;;;;2.30;1.42;;;3.60;99.90;;;;;;4961027;28;20106;-76
2023/12/06 06:33:42;;;;;;;0.52;0.47;;;3.60;99.90;;;;;;4945176;29;20074;-76
2023/12/06 06:36:08;;;;;;;4.63;2.50;;;3.60;99.90;;;;;;4952906;29;20396;-76
2023/12/06 06:38:35;;;;;;;5.40;3.17;;;3.60;99.90;;;;;;4968306;28;20031;-75
2023/12/06 06:41:01;;;;;;;1.60;1.48;;;3.70;99.90;;;;;;4953479;28;20027;-76
2023/12/06 06:43:27;;;;;;;1.42;0.55;;;3.70;99.90;;;;;;4970615;28;20062;-75
2023/12/06 06:45:55;;;;;;;3.30;0.80;;;4.00;99.90;;;;;;4952449;29;20039;-75
2023/12/06 06:48:23;;;;;;;3.10;1.75;;;3.80;99.90;;;;;;4952394;28;20023;-75
2023/12/06 06:50:49;;;;;;;2.78;1.98;;;3.80;99.90;;;;;;4968496;28;20104;-75
2023/12/06 06:53:15;;;;;;;5.50;3.53;;;3.80;99.90;;;;;;4971114;28;20054;-75
2023/12/06 06:55:41;;;;;;;1.65;0.50;;;3.80;99.90;;;;;;4969474;28;20019;-75
2023/12/06 06:58:06;;;;;;;0.93;0.68;;;3.80;99.90;;;;;;4971951;28;20042;-74
2023/12/06 07:00:32;;;;;;;0.40;0.40;;;3.90;99.90;;;;;;4972838;28;20046;-71
2023/12/06 07:02:58;;;;;;;1.52;0.40;;;3.90;99.90;;;;;;4975571;28;20019;-71
2023/12/06 07:05:23;;;;;;;0.65;0.52;;;3.90;99.90;;;;;;4974026;28;20028;-71
2023/12/06 07:07:49;;;;;;;0.93;0.80;;;3.90;99.90;;;;;;4973130;28;20039;-71
2023/12/06 07:10:14;;;;;;;1.70;0.60;;;4.00;99.90;;;;;;4972831;28;20027;-71
2023/12/06 07:12:40;;;;;;;0.50;0.50;;;4.00;99.90;;;;;;4972554;28;20104;-71
2023/12/06 07:15:13;;;;;;;3.60;0.70;;;4.00;99.90;;;;;;4972769;28;20109;-72
2023/12/06 07:17:39;;;;;;;0.52;0.52;;;4.10;99.90;;;;;;4968732;28;20090;-71
2023/12/06 07:20:05;;;;;;;0.40;0.40;;;4.10;99.90;;;;;;4952727;28;20031;-72
2023/12/06 07:22:31;;;;;;;0.70;0.50;;;4.00;99.90;;;;;;4971048;28;20055;-71
2023/12/06 07:24:57;;;;;;;1.02;0.30;;;4.00;99.90;;;;;;4969823;28;20019;-69
2023/12/06 07:27:22;;;;;;;1.60;0.63;;;4.00;99.90;;;;;;4970764;28;20031;-69
2023/12/06 07:29:48;;;;;;;0.70;0.70;;;4.00;99.90;;;;;;4968513;28;20030;-68
2023/12/06 07:32:13;;;;;;;0.55;0.55;;;4.00;99.90;;;;;;4969231;28;20059;-68
2023/12/06 07:34:39;;;;;;;0.77;0.73;;;4.10;99.90;;;;;;4951831;28;20031;-69
2023/12/06 07:37:05;;;;;;;1.65;0.57;;;4.10;99.90;;;;;;4968899;28;20028;-69
2023/12/06 07:39:30;;;;;;;0.40;0.40;;;4.10;99.90;;;;;;4952910;29;20059;-68
2023/12/06 07:41:56;;;;;;;2.38;0.32;;;4.20;99.90;;;;;;4971069;28;20023;-68
2023/12/06 07:44:22;;;;;;;0.35;0.35;;;4.20;99.90;;;;;;4954132;28;20469;-71
2023/12/06 07:46:48;;;;;;;0.28;0.28;;;4.20;99.90;;;;;;4970099;28;20057;-71
2023/12/06 07:49:13;;;;;;;0.52;0.45;;;4.20;99.90;;;;;;4969317;28;20058;-71
2023/12/06 07:51:40;;;;;;;0.40;0.40;;;4.30;99.90;;;;;;4970491;28;20032;-71
2023/12/06 07:54:05;;;;;;;1.17;0.22;;;4.30;99.90;;;;;;4971811;28;20031;-71
2023/12/06 07:56:31;;;;;;;0.30;0.30;;;4.30;99.90;;;;;;4970492;28;20082;-71
2023/12/06 07:58:57;;;;;;;2.78;1.90;;;4.30;99.90;;;;;;4968025;28;20032;-71
2023/12/06 08:01:29;;;;;;;0.63;0.52;;;4.30;99.90;;;;;;4968283;28;20027;-71
2023/12/06 08:03:54;;;;;;;0.60;0.50;;;4.30;99.90;;;;;;4969772;28;20035;-71
2023/12/06 08:06:20;;;;;;;0.80;0.32;;;4.40;99.90;;;;;;4965899;28;20023;-72
2023/12/06 08:08:50;;;;;;;0.45;0.45;;;4.40;99.90;;;;;;4968673;28;20087;-72
2023/12/06 08:11:16;;;;;;;0.32;0.28;;;4.40;99.90;;;;;;4969191;28;20019;-70
2023/12/06 08:13:41;;;;;;;0.75;0.75;;;4.50;99.90;;;;;;4952080;29;20083;-71
2023/12/06 08:16:08;;;;;;;0.98;0.77;;;4.50;99.90;;;;;;4969907;28;20043;-71
2023/12/06 08:18:35;;;;;;;1.20;0.47;;;4.60;99.90;;;;;;4967010;28;20039;-71
2023/12/06 08:21:03;;;;;;;0.70;0.70;;;4.50;99.90;;;;;;4966308;28;20472;-72
2023/12/06 08:23:28;;;;;;;0.77;0.77;;;4.60;99.90;;;;;;4966338;28;20019;-71
2023/12/06 08:25:54;;;;;;;0.40;0.40;;;4.60;99.90;;;;;;4967313;28;20031;-70
2023/12/06 08:28:20;;;;;;;0.95;0.90;;;4.60;99.90;;;;;;4970978;28;20034;-71
2023/12/06 08:30:46;;;;;;;0.70;0.60;;;4.60;99.90;;;;;;4953110;29;20223;-75
2023/12/06 08:33:13;;;;;;;0.93;0.70;;;4.60;99.90;;;;;;4969124;28;20045;-73
2023/12/06 08:35:39;;;;;;;0.65;0.63;;;4.70;99.90;;;;;;4963628;28;20090;-73
2023/12/06 08:38:05;;;;;;;0.80;0.80;;;4.70;99.90;;;;;;4960879;28;20027;-74
2023/12/06 08:40:31;;;;;;;0.85;0.60;;;4.70;99.90;;;;;;4965100;28;20080;-73
2023/12/06 08:42:57;;;;;;;0.65;0.65;;;4.80;99.90;;;;;;4964300;28;20019;-73
2023/12/06 08:45:22;;;;;;;0.70;0.57;;;4.80;99.90;;;;;;4964096;28;20487;-73
2023/12/06 08:47:48;;;;;;;0.47;0.47;;;5.00;99.90;;;;;;4962862;28;20038;-73
2023/12/06 08:50:15;;;;;;;0.63;0.50;;;4.70;99.90;;;;;;4960450;28;20019;-73
2023/12/06 08:52:45;;;;;;;0.70;0.70;;;4.70;99.90;;;;;;4962769;28;20047;-73
2023/12/06 08:55:10;;;;;;;;;;;4.70;99.90;;;;;;4969212;28;20447;-72
2023/12/06 08:57:36;;;;;;;0.77;0.63;;;4.80;99.90;;;;;;4964785;28;19949;-74
2023/12/06 09:00:07;;;;;;;0.70;0.52;;;4.80;99.90;;;;;;4967127;28;20089;-75
2023/12/06 09:02:39;;;;;;;0.77;0.77;;;4.80;99.90;;;;;;4967270;28;20031;-72
2023/12/06 09:05:05;;;;;;;0.43;0.43;;;4.80;99.90;;;;;;4969489;28;20015;-75
2023/12/06 09:07:31;;;;;;;0.80;0.80;;;4.80;99.90;;;;;;4962140;28;20023;-73
2023/12/06 09:09:57;;;;;;;1.00;0.47;;;4.80;99.90;;;;;;4963441;28;20031;-72
2023/12/06 09:12:23;;;;;;;1.80;0.70;;;4.80;99.90;;;;;;4964972;28;20396;-74
2023/12/06 09:14:48;;;;;;;0.98;0.88;;;4.80;99.90;;;;;;4945390;28;20078;-81
2023/12/06 09:17:14;;;;;;;0.80;0.80;;;4.70;99.90;;;;;;4962644;28;20024;-75
2023/12/06 09:19:39;;;;;;;0.68;0.68;;;4.60;99.90;;;;;;4962952;28;20460;-73
2023/12/06 09:22:05;;;;;;;0.73;0.73;;;4.70;99.90;;;;;;4957594;28;20027;-75
2023/12/06 09:24:31;;;;;;;0.80;0.80;;;4.60;99.90;;;;;;4962256;28;20445;-74
2023/12/06 09:26:56;;;;;;;0.85;0.70;;;4.60;99.90;;;;;;4961202;28;20433;-74
2023/12/06 09:29:22;;;;;;;0.70;0.70;;;4.50;99.90;;;;;;4962964;28;20026;-73
2023/12/06 09:31:48;;;;;;;0.70;0.70;;;4.50;99.90;;;;;;4962005;28;20500;-73
2023/12/06 09:34:13;;;;;;;0.80;0.80;;;4.50;99.90;;;;;;4959054;28;20493;-74
2023/12/06 09:36:39;;;;;;;0.60;0.60;;;4.50;99.90;;;;;;4961263;28;20027;-73
2023/12/06 09:39:05;;;;;;;1.02;0.70;;;4.50;99.90;;;;;;4961192;28;20042;-73
2023/12/06 09:41:32;;;;;;;0.40;0.40;;;4.80;99.90;;;;;;4961743;28;20102;-73
2023/12/06 09:44:01;;;;;;;0.60;0.60;;;4.40;99.90;;;;;;4963809;28;20023;-74
2023/12/06 09:46:28;;;;;;;0.50;0.50;;;4.50;99.90;;;;;;4960754;28;20031;-75
2023/12/06 09:48:53;;;;;;;0.50;0.50;;;4.50;99.90;;;;;;4963831;28;20035;-75
2023/12/06 09:51:20;;;;;;;0.60;0.60;;;4.70;99.90;;;;;;4961861;28;20019;-75
2023/12/06 09:53:46;;;;;;;0.32;0.32;;;4.70;99.90;;;;;;4962829;28;20102;-75
2023/12/06 09:56:13;;;;;;;0.98;0.70;;;4.70;99.90;;;;;;4944703;29;20030;-74
2023/12/06 09:58:39;;;;;;;2.88;0.52;;;4.60;99.90;;;;;;4944082;28;20055;-73
2023/12/06 10:01:05;;;;;;;0.28;0.28;;;4.80;99.90;;;;;;4957271;29;20023;-75
2023/12/06 10:03:31;;;;;;;0.60;0.60;;;4.80;99.90;;;;;;4959608;28;20534;-74
2023/12/06 10:05:58;;;;;;;1.02;0.60;;;4.80;99.90;;;;;;4959197;28;20023;-73
2023/12/06 10:08:25;;;;;;;0.40;0.40;;;4.90;99.90;;;;;;4955112;28;20023;-74
2023/12/06 10:11:22;;;;;;;0.60;0.50;;;5.00;99.90;;;;;;4956230;28;20027;-73
2023/12/06 10:13:48;;;;;;;3.00;0.73;;;5.30;99.90;;;;;;4946930;28;20054;-74
2023/12/06 10:16:16;;;;;;;0.80;0.68;;;5.00;99.90;;;;;;4955286;28;20028;-76
2023/12/06 10:18:42;;;;;;;0.98;0.73;;;5.00;99.90;;;;;;4955043;28;20102;-74
2023/12/06 10:21:08;;;;;;;1.13;0.55;;;5.00;99.90;;;;;;4938274;29;20375;-73
2023/12/06 10:23:35;;;;;;;1.70;1.50;;;4.80;99.90;;;;;;4955407;28;20020;-76
2023/12/06 10:26:01;;;;;;;0.80;0.80;;;4.80;99.90;;;;;;4937961;28;20043;-74
2023/12/06 10:28:26;;;;;;;1.58;0.98;;;4.90;99.90;;;;;;4955019;28;20229;-72
2023/12/06 10:31:03;;;;;;;1.13;1.05;;;4.70;99.90;;;;;;4955648;28;20023;-73
2023/12/06 10:33:30;;;;;;;1.08;0.98;;;4.90;99.90;;;;;;4956268;28;20110;-73
2023/12/06 10:36:04;;;;;;;1.00;1.00;;;4.70;99.90;;;;;;4960134;28;20023;-72
2023/12/06 10:38:30;;;;;;;2.08;1.02;;;4.80;99.90;;;;;;4962726;28;20027;-73
2023/12/06 10:40:58;;;;;;;0.80;0.80;;;4.80;99.90;;;;;;4945199;28;20028;-73
2023/12/06 10:43:26;;;;;;;1.10;1.00;;;4.80;99.90;;;;;;4943928;29;20106;-72
2023/12/06 10:45:53;;;;;;;0.90;0.90;;;4.80;99.90;;;;;;4947884;29;20353;-73
2023/12/06 10:48:20;;;;;;;0.73;0.73;;;4.90;99.90;;;;;;4962805;28;20034;-73
2023/12/06 10:50:45;;;;;;;1.52;1.10;;;4.90;99.90;;;;;;4947249;29;20042;-72
2023/12/06 10:53:17;;;;;;;0.75;0.75;;;5.00;99.90;;;;;;4963718;28;20501;-73
2023/12/06 10:55:43;;;;;;;0.80;0.68;;;5.10;99.90;;;;;;4962462;28;20019;-73
2023/12/06 10:58:09;;;;;;;0.80;0.80;;;5.20;99.90;;;;;;4963949;28;20095;-72
2023/12/06 11:00:37;;;;;;;1.00;0.80;;;5.20;99.90;;;;;;4966334;28;20026;-72
2023/12/06 11:03:03;;;;;;;0.52;0.52;;;5.30;99.90;;;;;;4948768;29;20114;-73
2023/12/06 11:05:37;;;;;;;2.58;1.38;;;5.30;99.90;;;;;;4966591;28;20079;-72
2023/12/06 11:08:25;;;;;;;1.45;0.85;;;5.20;99.90;;;;;;4947521;29;20162;-72
2023/12/06 11:11:17;;;;;;;1.08;0.77;;;5.30;99.90;;;;;;4963067;28;20158;-72
2023/12/06 11:13:56;;;;;;;0.82;0.82;;;5.70;99.90;;;;;;4965466;28;20376;-73
2023/12/06 11:16:42;;;;;;;;;;;5.30;99.90;;;;;;4965786;28;20027;-73
2023/12/06 11:19:12;;;;;;;1.40;1.30;;;5.30;99.90;;;;;;4934098;29;19906;-73
2023/12/06 11:21:38;;;;;;;0.80;0.80;;;5.30;99.90;;;;;;4963934;28;20038;-72
2023/12/06 11:24:08;;;;;;;3.80;1.65;;;5.20;99.90;;;;;;4962551;28;20046;-73
2023/12/06 11:26:33;;;;;;;5.68;1.92;;;5.20;99.90;;;;;;4962617;28;20031;-72
2023/12/06 11:29:02;;;;;;;2.25;2.05;;;5.10;99.90;;;;;;4961725;28;20031;-72
2023/12/06 11:31:36;;;;;;;0.65;0.65;;;5.00;99.90;;;;;;4944718;28;20435;-73
2023/12/06 11:34:11;;;;;;;1.83;0.70;;;5.00;99.90;;;;;;4963521;28;20038;-72
2023/12/06 11:36:39;;;;;;;1.42;1.30;;;5.10;99.90;;;;;;4947000;28;20499;-72
2023/12/06 11:39:17;;;;;;;1.55;1.10;;;5.10;99.90;;;;;;4946864;28;20028;-72
2023/12/06 11:41:50;;;;;;;0.82;0.80;;;5.20;99.90;;;;;;4962452;28;20020;-72
2023/12/06 11:44:22;;;;;;;3.03;0.88;;;5.10;99.90;;;;;;4964857;28;20362;-72
2023/12/06 11:46:52;;;;;;;1.13;0.90;;;5.50;99.90;;;;;;4962280;28;20087;-72
2023/12/06 11:49:22;;;;;;;1.90;1.15;;;5.20;99.90;;;;;;4963086;28;20027;-72
2023/12/06 11:51:59;;;;;;;1.00;0.75;;;5.20;99.90;;;;;;4964850;28;20061;-72
2023/12/06 11:54:25;;;;;;;0.70;0.70;;;5.30;99.90;;;;;;4965632;28;20027;-72
2023/12/06 11:56:51;;;;;;;1.40;1.20;;;5.30;99.90;;;;;;4973748;28;20022;-73
2023/12/06 11:59:17;;;;;;;1.08;0.95;;;5.40;99.90;;;;;;4966834;28;20023;-73
2023/12/06 12:01:44;;;;;;;1.85;0.90;;;5.60;99.90;;;;;;4966487;28;20027;-73
2023/12/06 12:04:10;;;;;;;4.32;0.80;;;5.70;99.90;;;;;;4967423;28;20114;-73
2023/12/06 12:06:37;;;;;;;1.00;1.00;;;5.70;99.90;;;;;;4967930;28;20031;-73
2023/12/06 12:09:11;;;;;;;0.90;0.88;;;5.80;99.90;;;;;;4967116;29;20031;-73
2023/12/06 12:11:36;;;;;;;1.27;0.82;;;5.80;99.90;;;;;;4967816;29;20496;-72
2023/12/06 12:14:04;;;;;;;1.88;0.77;;;5.90;99.90;;;;;;4968651;28;20035;-73
2023/12/06 12:16:30;;;;;;;1.02;0.93;;;6.00;99.90;;;;;;4969165;28;20021;-73
2023/12/06 12:18:56;;;;;;;4.18;0.80;;;6.10;99.90;;;;;;4969230;28;20026;-72
2023/12/06 12:21:26;;;;;;;1.50;0.80;;;6.00;99.90;;;;;;4955457;28;20299;-72
2023/12/06 12:23:54;;;;;;;3.92;1.00;;;6.10;99.90;;;;;;4970607;28;20058;-72
2023/12/06 12:26:20;;;;;;;0.80;0.80;;;6.20;99.90;;;;;;4969147;28;20374;-73
2023/12/06 12:28:45;;;;;;;1.80;0.82;;;6.10;99.90;;;;;;4964529;28;20065;-71
2023/12/06 12:31:17;;;;;;;1.23;0.75;;;6.00;99.90;;;;;;4962062;28;20469;-72
2023/12/06 12:33:43;;;;;;;1.27;0.70;;;5.80;99.90;;;;;;4964509;28;20039;-71
2023/12/06 12:36:09;;;;;;;1.00;1.00;;;5.70;99.90;;;;;;4962107;28;20031;-72
2023/12/06 12:38:46;;;;;;;1.02;0.90;;;5.80;99.90;;;;;;4962964;28;20042;-72
2023/12/06 12:41:13;;;;;;;1.20;0.70;;;5.70;99.90;;;;;;4961516;28;20030;-72
2023/12/06 12:43:39;;;;;;;0.90;0.90;;;5.90;99.90;;;;;;4962529;28;20019;-72
2023/12/06 12:46:05;;;;;;;0.80;0.80;;;5.90;99.90;;;;;;4962828;28;20038;-71
2023/12/06 12:48:32;;;;;;;1.02;0.80;;;5.80;99.90;;;;;;4966328;28;20027;-72
2023/12/06 12:51:14;;;;;;;0.75;0.75;;;6.00;99.90;;;;;;4962214;28;20110;-72
2023/12/06 12:53:44;;;;;;;1.20;1.10;;;6.00;99.90;;;;;;4961841;28;20051;-72
2023/12/06 12:56:12;;;;;;;1.23;1.00;;;6.00;99.90;;;;;;4959728;28;20047;-72
2023/12/06 12:58:39;;;;;;;0.87;0.87;;;6.10;99.90;;;;;;4968013;29;20031;-71